sensor_id;sensor_type;location;lat;lon;timestamp;temperature;humidity
6078;DHT22;3067;49.470;10.394;2023-09-19T00:00:25;17.10;68.60
6078;DHT22;3067;49.470;10.394;2023-09-19T00:02:53;17.10;68.60
6078;DHT22;3067;49.470;10.394;2023-09-19T00:05:24;17.00;68.80
6078;DHT22;3067;49.470;10.394;2023-09-19T00:07:54;17.00;68.90
6078;DHT22;3067;49.470;10.394;2023-09-19T00:10:22;17.00;68.80
6078;DHT22;3067;49.470;10.394;2023-09-19T00:12:50;17.00;69.00
6078;DHT22;3067;49.470;10.394;2023-09-19T00:15:19;17.00;69.00
6078;DHT22;3067;49.470;10.394;2023-09-19T00:17:46;16.90;69.10
6078;DHT22;3067;49.470;10.394;2023-09-19T00:20:14;16.90;68.90
6078;DHT22;3067;49.470;10.394;2023-09-19T00:22:44;16.80;69.30
6078;DHT22;3067;49.470;10.394;2023-09-19T00:25:11;16.80;69.40
6078;DHT22;3067;49.470;10.394;2023-09-19T00:27:41;16.70;69.40
6078;DHT22;3067;49.470;10.394;2023-09-19T00:30:11;16.70;69.70
6078;DHT22;3067;49.470;10.394;2023-09-19T00:32:41;16.70;69.50
6078;DHT22;3067;49.470;10.394;2023-09-19T00:35:09;16.70;69.50
6078;DHT22;3067;49.470;10.394;2023-09-19T00:37:37;16.80;69.40
6078;DHT22;3067;49.470;10.394;2023-09-19T00:40:08;16.70;69.40
6078;DHT22;3067;49.470;10.394;2023-09-19T00:42:38;16.70;69.60
6078;DHT22;3067;49.470;10.394;2023-09-19T00:45:07;16.70;69.80
6078;DHT22;3067;49.470;10.394;2023-09-19T00:47:36;16.70;69.90
6078;DHT22;3067;49.470;10.394;2023-09-19T00:50:04;16.70;69.80
6078;DHT22;3067;49.470;10.394;2023-09-19T00:52:34;16.70;70.00
6078;DHT22;3067;49.470;10.394;2023-09-19T00:55:06;16.70;70.00
6078;DHT22;3067;49.470;10.394;2023-09-19T00:57:34;16.70;70.00
6078;DHT22;3067;49.470;10.394;2023-09-19T01:00:05;16.70;70.30
6078;DHT22;3067;49.470;10.394;2023-09-19T01:02:34;16.70;70.10
6078;DHT22;3067;49.470;10.394;2023-09-19T01:05:03;16.70;70.50
6078;DHT22;3067;49.470;10.394;2023-09-19T01:07:32;16.70;70.30
6078;DHT22;3067;49.470;10.394;2023-09-19T01:10:00;16.70;70.10
6078;DHT22;3067;49.470;10.394;2023-09-19T01:12:39;16.80;70.20
6078;DHT22;3067;49.470;10.394;2023-09-19T01:15:14;16.80;70.10
6078;DHT22;3067;49.470;10.394;2023-09-19T01:17:48;16.90;70.10
6078;DHT22;3067;49.470;10.394;2023-09-19T01:20:26;16.90;70.10
6078;DHT22;3067;49.470;10.394;2023-09-19T01:23:05;16.90;70.10
6078;DHT22;3067;49.470;10.394;2023-09-19T01:28:52;16.90;70.30
6078;DHT22;3067;49.470;10.394;2023-09-19T01:31:28;16.90;70.10
6078;DHT22;3067;49.470;10.394;2023-09-19T01:34:00;17.00;70.00
6078;DHT22;3067;49.470;10.394;2023-09-19T01:36:31;17.00;69.90
6078;DHT22;3067;49.470;10.394;2023-09-19T01:39:00;17.00;69.60
6078;DHT22;3067;49.470;10.394;2023-09-19T01:41:39;17.00;69.50
6078;DHT22;3067;49.470;10.394;2023-09-19T01:44:13;17.10;69.20
6078;DHT22;3067;49.470;10.394;2023-09-19T01:46:45;17.10;69.30
6078;DHT22;3067;49.470;10.394;2023-09-19T01:49:19;17.10;69.20
6078;DHT22;3067;49.470;10.394;2023-09-19T01:52:00;17.10;69.20
6078;DHT22;3067;49.470;10.394;2023-09-19T01:54:33;17.00;69.30
6078;DHT22;3067;49.470;10.394;2023-09-19T01:57:09;17.00;69.40
6078;DHT22;3067;49.470;10.394;2023-09-19T01:59:44;17.00;69.60
6078;DHT22;3067;49.470;10.394;2023-09-19T02:02:14;16.90;69.80
6078;DHT22;3067;49.470;10.394;2023-09-19T02:04:43;16.90;70.00
6078;DHT22;3067;49.470;10.394;2023-09-19T02:07:10;16.80;70.20
6078;DHT22;3067;49.470;10.394;2023-09-19T02:09:37;16.80;70.40
6078;DHT22;3067;49.470;10.394;2023-09-19T02:12:05;16.80;70.50
6078;DHT22;3067;49.470;10.394;2023-09-19T02:14:33;16.80;70.50
6078;DHT22;3067;49.470;10.394;2023-09-19T02:17:01;16.80;70.60
6078;DHT22;3067;49.470;10.394;2023-09-19T02:19:32;16.80;70.70
6078;DHT22;3067;49.470;10.394;2023-09-19T02:21:59;16.70;70.80
6078;DHT22;3067;49.470;10.394;2023-09-19T02:24:28;16.70;71.00
6078;DHT22;3067;49.470;10.394;2023-09-19T02:26:56;16.60;71.20
6078;DHT22;3067;49.470;10.394;2023-09-19T02:29:25;16.70;71.10
6078;DHT22;3067;49.470;10.394;2023-09-19T02:31:52;16.70;71.20
6078;DHT22;3067;49.470;10.394;2023-09-19T02:34:21;16.60;71.30
6078;DHT22;3067;49.470;10.394;2023-09-19T02:36:50;16.60;71.40
6078;DHT22;3067;49.470;10.394;2023-09-19T02:39:19;16.60;71.50
6078;DHT22;3067;49.470;10.394;2023-09-19T02:41:46;16.60;71.50
6078;DHT22;3067;49.470;10.394;2023-09-19T02:44:13;16.60;71.60
6078;DHT22;3067;49.470;10.394;2023-09-19T02:46:41;16.60;71.60
6078;DHT22;3067;49.470;10.394;2023-09-19T02:49:08;16.60;71.70
6078;DHT22;3067;49.470;10.394;2023-09-19T02:51:35;16.60;71.90
6078;DHT22;3067;49.470;10.394;2023-09-19T02:54:04;16.60;71.90
6078;DHT22;3067;49.470;10.394;2023-09-19T02:56:32;16.50;72.10
6078;DHT22;3067;49.470;10.394;2023-09-19T02:58:59;16.50;72.20
6078;DHT22;3067;49.470;10.394;2023-09-19T03:01:27;16.40;72.50
6078;DHT22;3067;49.470;10.394;2023-09-19T03:03:54;16.40;72.70
6078;DHT22;3067;49.470;10.394;2023-09-19T03:06:22;16.40;72.70
6078;DHT22;3067;49.470;10.394;2023-09-19T03:08:49;16.40;72.60
6078;DHT22;3067;49.470;10.394;2023-09-19T03:11:18;16.40;72.70
6078;DHT22;3067;49.470;10.394;2023-09-19T03:13:51;16.40;72.80
6078;DHT22;3067;49.470;10.394;2023-09-19T03:16:18;16.50;72.80
6078;DHT22;3067;49.470;10.394;2023-09-19T03:18:47;16.50;72.70
6078;DHT22;3067;49.470;10.394;2023-09-19T03:21:14;16.40;73.00
6078;DHT22;3067;49.470;10.394;2023-09-19T03:23:43;16.40;73.20
6078;DHT22;3067;49.470;10.394;2023-09-19T03:26:12;16.40;73.50
6078;DHT22;3067;49.470;10.394;2023-09-19T03:28:42;16.40;73.60
6078;DHT22;3067;49.470;10.394;2023-09-19T03:31:09;16.40;73.70
6078;DHT22;3067;49.470;10.394;2023-09-19T03:33:37;16.50;73.60
6078;DHT22;3067;49.470;10.394;2023-09-19T03:36:04;16.50;73.40
6078;DHT22;3067;49.470;10.394;2023-09-19T03:38:33;16.60;73.20
6078;DHT22;3067;49.470;10.394;2023-09-19T03:41:00;16.60;73.20
6078;DHT22;3067;49.470;10.394;2023-09-19T03:43:28;16.70;73.10
6078;DHT22;3067;49.470;10.394;2023-09-19T03:45:56;16.70;72.80
6078;DHT22;3067;49.470;10.394;2023-09-19T03:48:23;16.80;72.80
6078;DHT22;3067;49.470;10.394;2023-09-19T03:50:50;16.80;72.60
6078;DHT22;3067;49.470;10.394;2023-09-19T03:53:18;16.80;72.50
6078;DHT22;3067;49.470;10.394;2023-09-19T03:55:46;16.80;72.50
6078;DHT22;3067;49.470;10.394;2023-09-19T03:58:13;16.80;72.50
6078;DHT22;3067;49.470;10.394;2023-09-19T04:00:40;16.90;72.50
6078;DHT22;3067;49.470;10.394;2023-09-19T04:03:08;16.90;72.30
6078;DHT22;3067;49.470;10.394;2023-09-19T04:05:44;16.90;72.10
6078;DHT22;3067;49.470;10.394;2023-09-19T04:08:12;16.90;72.30
6078;DHT22;3067;49.470;10.394;2023-09-19T04:10:42;16.90;72.20
6078;DHT22;3067;49.470;10.394;2023-09-19T04:13:09;16.90;72.00
6078;DHT22;3067;49.470;10.394;2023-09-19T04:15:36;16.90;72.10
6078;DHT22;3067;49.470;10.394;2023-09-19T04:18:03;16.80;72.20
6078;DHT22;3067;49.470;10.394;2023-09-19T04:20:32;16.90;72.30
6078;DHT22;3067;49.470;10.394;2023-09-19T04:23:00;16.90;72.20
6078;DHT22;3067;49.470;10.394;2023-09-19T04:25:27;16.80;72.20
6078;DHT22;3067;49.470;10.394;2023-09-19T04:27:54;16.80;72.10
6078;DHT22;3067;49.470;10.394;2023-09-19T04:30:21;16.80;72.00
6078;DHT22;3067;49.470;10.394;2023-09-19T04:32:48;16.70;72.00
6078;DHT22;3067;49.470;10.394;2023-09-19T04:35:16;16.70;72.10
6078;DHT22;3067;49.470;10.394;2023-09-19T04:37:45;16.70;72.10
6078;DHT22;3067;49.470;10.394;2023-09-19T04:40:13;16.80;72.10
6078;DHT22;3067;49.470;10.394;2023-09-19T04:42:43;16.80;72.00
6078;DHT22;3067;49.470;10.394;2023-09-19T04:45:10;16.80;72.10
6078;DHT22;3067;49.470;10.394;2023-09-19T04:47:37;16.80;71.90
6078;DHT22;3067;49.470;10.394;2023-09-19T04:50:07;16.70;72.10
6078;DHT22;3067;49.470;10.394;2023-09-19T04:52:39;16.80;72.10
6078;DHT22;3067;49.470;10.394;2023-09-19T04:55:09;16.80;72.00
6078;DHT22;3067;49.470;10.394;2023-09-19T04:57:43;16.70;71.90
6078;DHT22;3067;49.470;10.394;2023-09-19T05:00:12;16.70;72.20
6078;DHT22;3067;49.470;10.394;2023-09-19T05:02:40;16.60;72.40
6078;DHT22;3067;49.470;10.394;2023-09-19T05:05:09;16.60;72.30
6078;DHT22;3067;49.470;10.394;2023-09-19T05:07:37;16.60;72.20
6078;DHT22;3067;49.470;10.394;2023-09-19T05:10:06;16.60;72.40
6078;DHT22;3067;49.470;10.394;2023-09-19T05:12:35;16.60;72.40
6078;DHT22;3067;49.470;10.394;2023-09-19T05:15:03;16.60;72.50
6078;DHT22;3067;49.470;10.394;2023-09-19T05:17:30;16.60;72.40
6078;DHT22;3067;49.470;10.394;2023-09-19T05:19:58;16.60;72.40
6078;DHT22;3067;49.470;10.394;2023-09-19T05:22:27;16.60;72.20
6078;DHT22;3067;49.470;10.394;2023-09-19T05:24:54;16.60;72.30
6078;DHT22;3067;49.470;10.394;2023-09-19T05:27:21;16.60;72.30
6078;DHT22;3067;49.470;10.394;2023-09-19T05:29:50;16.60;72.40
6078;DHT22;3067;49.470;10.394;2023-09-19T05:32:18;16.60;72.40
6078;DHT22;3067;49.470;10.394;2023-09-19T05:34:45;16.60;72.40
6078;DHT22;3067;49.470;10.394;2023-09-19T05:37:13;16.60;72.30
6078;DHT22;3067;49.470;10.394;2023-09-19T05:39:41;16.60;72.50
6078;DHT22;3067;49.470;10.394;2023-09-19T05:42:08;16.70;72.40
6078;DHT22;3067;49.470;10.394;2023-09-19T05:44:35;16.70;72.50
6078;DHT22;3067;49.470;10.394;2023-09-19T05:47:04;16.60;72.20
6078;DHT22;3067;49.470;10.394;2023-09-19T05:49:34;16.60;72.20
6078;DHT22;3067;49.470;10.394;2023-09-19T05:52:04;16.60;71.90
6078;DHT22;3067;49.470;10.394;2023-09-19T05:54:32;16.50;72.00
6078;DHT22;3067;49.470;10.394;2023-09-19T05:56:59;16.50;71.90
6078;DHT22;3067;49.470;10.394;2023-09-19T05:59:27;16.50;71.70
6078;DHT22;3067;49.470;10.394;2023-09-19T06:01:54;16.50;71.70
6078;DHT22;3067;49.470;10.394;2023-09-19T06:04:23;16.60;71.50
6078;DHT22;3067;49.470;10.394;2023-09-19T06:06:51;16.60;70.80
6078;DHT22;3067;49.470;10.394;2023-09-19T06:09:18;16.70;70.20
6078;DHT22;3067;49.470;10.394;2023-09-19T06:11:45;16.60;70.10
6078;DHT22;3067;49.470;10.394;2023-09-19T06:14:12;16.60;70.30
6078;DHT22;3067;49.470;10.394;2023-09-19T06:16:40;16.70;70.20
6078;DHT22;3067;49.470;10.394;2023-09-19T06:19:08;16.70;70.10
6078;DHT22;3067;49.470;10.394;2023-09-19T06:21:37;16.70;69.90
6078;DHT22;3067;49.470;10.394;2023-09-19T06:24:05;16.70;69.60
6078;DHT22;3067;49.470;10.394;2023-09-19T06:26:32;16.70;69.50
6078;DHT22;3067;49.470;10.394;2023-09-19T06:28:59;16.80;69.40
6078;DHT22;3067;49.470;10.394;2023-09-19T06:31:26;16.80;69.00
6078;DHT22;3067;49.470;10.394;2023-09-19T06:33:53;16.90;69.00
6078;DHT22;3067;49.470;10.394;2023-09-19T06:36:20;16.90;68.50
6078;DHT22;3067;49.470;10.394;2023-09-19T06:38:49;17.00;68.70
6078;DHT22;3067;49.470;10.394;2023-09-19T06:41:16;17.10;68.20
6078;DHT22;3067;49.470;10.394;2023-09-19T06:43:44;17.20;67.90
6078;DHT22;3067;49.470;10.394;2023-09-19T06:46:11;17.30;66.60
6078;DHT22;3067;49.470;10.394;2023-09-19T06:48:38;17.40;66.50
6078;DHT22;3067;49.470;10.394;2023-09-19T06:51:07;17.50;66.20
6078;DHT22;3067;49.470;10.394;2023-09-19T06:53:35;17.60;65.40
6078;DHT22;3067;49.470;10.394;2023-09-19T06:56:04;17.60;64.00
6078;DHT22;3067;49.470;10.394;2023-09-19T06:58:32;17.60;62.70
6078;DHT22;3067;49.470;10.394;2023-09-19T07:00:59;17.50;63.20
6078;DHT22;3067;49.470;10.394;2023-09-19T07:03:26;17.50;63.40
6078;DHT22;3067;49.470;10.394;2023-09-19T07:05:54;17.50;62.70
6078;DHT22;3067;49.470;10.394;2023-09-19T07:08:21;17.50;63.30
6078;DHT22;3067;49.470;10.394;2023-09-19T07:10:49;17.60;63.20
6078;DHT22;3067;49.470;10.394;2023-09-19T07:13:21;17.60;62.40
6078;DHT22;3067;49.470;10.394;2023-09-19T07:15:48;17.60;62.30
6078;DHT22;3067;49.470;10.394;2023-09-19T07:18:16;17.80;62.90
6078;DHT22;3067;49.470;10.394;2023-09-19T07:20:44;17.80;62.80
6078;DHT22;3067;49.470;10.394;2023-09-19T07:23:15;17.80;62.70
6078;DHT22;3067;49.470;10.394;2023-09-19T07:25:42;18.00;61.70
6078;DHT22;3067;49.470;10.394;2023-09-19T07:28:09;18.00;62.00
6078;DHT22;3067;49.470;10.394;2023-09-19T07:30:38;18.00;61.90
6078;DHT22;3067;49.470;10.394;2023-09-19T07:33:06;18.00;62.30
6078;DHT22;3067;49.470;10.394;2023-09-19T07:35:34;18.00;62.90
6078;DHT22;3067;49.470;10.394;2023-09-19T07:38:01;18.00;62.90
6078;DHT22;3067;49.470;10.394;2023-09-19T07:40:28;17.90;62.50
6078;DHT22;3067;49.470;10.394;2023-09-19T07:42:56;17.80;62.50
6078;DHT22;3067;49.470;10.394;2023-09-19T07:45:27;17.80;63.00
6078;DHT22;3067;49.470;10.394;2023-09-19T07:47:57;17.80;63.50
6078;DHT22;3067;49.470;10.394;2023-09-19T07:50:26;17.80;63.30
6078;DHT22;3067;49.470;10.394;2023-09-19T07:52:54;17.90;63.40
6078;DHT22;3067;49.470;10.394;2023-09-19T07:55:22;18.00;63.80
6078;DHT22;3067;49.470;10.394;2023-09-19T07:57:51;18.10;63.40
6078;DHT22;3067;49.470;10.394;2023-09-19T08:00:18;18.20;60.50
6078;DHT22;3067;49.470;10.394;2023-09-19T08:02:45;18.10;60.50
6078;DHT22;3067;49.470;10.394;2023-09-19T08:05:14;18.20;60.80
6078;DHT22;3067;49.470;10.394;2023-09-19T08:07:43;18.10;60.50
6078;DHT22;3067;49.470;10.394;2023-09-19T08:10:11;18.20;61.20
6078;DHT22;3067;49.470;10.394;2023-09-19T08:12:39;18.20;60.90
6078;DHT22;3067;49.470;10.394;2023-09-19T08:15:12;18.20;60.40
6078;DHT22;3067;49.470;10.394;2023-09-19T08:17:40;18.30;59.90
6078;DHT22;3067;49.470;10.394;2023-09-19T08:20:08;18.40;58.50
6078;DHT22;3067;49.470;10.394;2023-09-19T08:22:46;18.50;58.30
6078;DHT22;3067;49.470;10.394;2023-09-19T08:25:14;18.40;57.90
6078;DHT22;3067;49.470;10.394;2023-09-19T08:27:43;18.50;58.00
6078;DHT22;3067;49.470;10.394;2023-09-19T08:30:13;18.50;57.20
6078;DHT22;3067;49.470;10.394;2023-09-19T08:32:41;18.40;56.40
6078;DHT22;3067;49.470;10.394;2023-09-19T08:35:09;18.30;56.60
6078;DHT22;3067;49.470;10.394;2023-09-19T08:37:36;18.20;58.00
6078;DHT22;3067;49.470;10.394;2023-09-19T08:40:06;18.10;57.40
6078;DHT22;3067;49.470;10.394;2023-09-19T08:42:48;18.00;57.40
6078;DHT22;3067;49.470;10.394;2023-09-19T08:45:15;18.00;57.70
6078;DHT22;3067;49.470;10.394;2023-09-19T08:47:46;17.90;58.90
6078;DHT22;3067;49.470;10.394;2023-09-19T08:50:19;18.00;58.70
6078;DHT22;3067;49.470;10.394;2023-09-19T08:52:51;18.10;58.40
6078;DHT22;3067;49.470;10.394;2023-09-19T08:55:26;18.10;58.50
6078;DHT22;3067;49.470;10.394;2023-09-19T08:58:00;18.20;57.80
6078;DHT22;3067;49.470;10.394;2023-09-19T09:00:28;18.10;57.50
6078;DHT22;3067;49.470;10.394;2023-09-19T09:02:56;18.10;58.70
6078;DHT22;3067;49.470;10.394;2023-09-19T09:05:24;18.20;57.60
6078;DHT22;3067;49.470;10.394;2023-09-19T09:07:52;18.10;58.40
6078;DHT22;3067;49.470;10.394;2023-09-19T09:10:22;18.30;58.20
6078;DHT22;3067;49.470;10.394;2023-09-19T09:12:51;18.40;57.70
6078;DHT22;3067;49.470;10.394;2023-09-19T09:15:19;18.50;57.80
6078;DHT22;3067;49.470;10.394;2023-09-19T09:17:47;18.40;57.80
6078;DHT22;3067;49.470;10.394;2023-09-19T09:20:16;18.40;58.30
6078;DHT22;3067;49.470;10.394;2023-09-19T09:22:51;18.40;58.70
6078;DHT22;3067;49.470;10.394;2023-09-19T09:25:21;18.50;59.30
6078;DHT22;3067;49.470;10.394;2023-09-19T09:27:59;18.70;58.60
6078;DHT22;3067;49.470;10.394;2023-09-19T09:30:34;18.80;57.50
6078;DHT22;3067;49.470;10.394;2023-09-19T09:33:09;18.90;57.50
6078;DHT22;3067;49.470;10.394;2023-09-19T09:35:37;19.00;57.10
6078;DHT22;3067;49.470;10.394;2023-09-19T09:38:13;19.00;56.20
6078;DHT22;3067;49.470;10.394;2023-09-19T09:40:50;19.00;56.00
6078;DHT22;3067;49.470;10.394;2023-09-19T09:43:26;19.00;56.20
6078;DHT22;3067;49.470;10.394;2023-09-19T09:46:07;18.90;56.10
6078;DHT22;3067;49.470;10.394;2023-09-19T09:49:00;18.70;56.10
6078;DHT22;3067;49.470;10.394;2023-09-19T09:52:00;18.60;57.30
6078;DHT22;3067;49.470;10.394;2023-09-19T09:54:31;18.50;57.70
6078;DHT22;3067;49.470;10.394;2023-09-19T09:57:07;18.50;58.20
6078;DHT22;3067;49.470;10.394;2023-09-19T09:59:50;18.60;58.60
6078;DHT22;3067;49.470;10.394;2023-09-19T10:02:19;18.70;57.80
6078;DHT22;3067;49.470;10.394;2023-09-19T10:04:52;18.70;56.20
6078;DHT22;3067;49.470;10.394;2023-09-19T10:07:26;18.80;57.40
6078;DHT22;3067;49.470;10.394;2023-09-19T10:09:58;18.90;55.90
6078;DHT22;3067;49.470;10.394;2023-09-19T10:12:33;18.90;55.90
6078;DHT22;3067;49.470;10.394;2023-09-19T10:15:02;19.00;57.00
6078;DHT22;3067;49.470;10.394;2023-09-19T10:17:34;19.10;55.50
6078;DHT22;3067;49.470;10.394;2023-09-19T10:20:03;19.10;53.80
6078;DHT22;3067;49.470;10.394;2023-09-19T10:22:44;19.00;53.70
6078;DHT22;3067;49.470;10.394;2023-09-19T10:25:24;19.00;54.20
6078;DHT22;3067;49.470;10.394;2023-09-19T10:27:54;19.20;53.80
6078;DHT22;3067;49.470;10.394;2023-09-19T10:30:24;19.20;52.70
6078;DHT22;3067;49.470;10.394;2023-09-19T10:32:59;19.20;52.70
6078;DHT22;3067;49.470;10.394;2023-09-19T10:35:27;19.20;52.20
6078;DHT22;3067;49.470;10.394;2023-09-19T10:37:57;19.20;53.50
6078;DHT22;3067;49.470;10.394;2023-09-19T10:40:27;19.30;53.20
6078;DHT22;3067;49.470;10.394;2023-09-19T10:43:02;19.50;52.30
6078;DHT22;3067;49.470;10.394;2023-09-19T10:45:33;19.50;51.80
6078;DHT22;3067;49.470;10.394;2023-09-19T10:48:01;19.50;52.10
6078;DHT22;3067;49.470;10.394;2023-09-19T10:50:33;19.70;51.10
6078;DHT22;3067;49.470;10.394;2023-09-19T10:53:05;19.80;48.90
6078;DHT22;3067;49.470;10.394;2023-09-19T10:55:34;19.90;48.40
6078;DHT22;3067;49.470;10.394;2023-09-19T10:58:04;20.00;48.90
6078;DHT22;3067;49.470;10.394;2023-09-19T11:00:52;20.10;48.00
6078;DHT22;3067;49.470;10.394;2023-09-19T11:03:21;20.10;47.90
6078;DHT22;3067;49.470;10.394;2023-09-19T11:06:03;20.00;48.50
6078;DHT22;3067;49.470;10.394;2023-09-19T11:08:57;19.90;48.80
6078;DHT22;3067;49.470;10.394;2023-09-19T11:11:41;20.00;50.00
6078;DHT22;3067;49.470;10.394;2023-09-19T11:17:31;20.50;46.40
6078;DHT22;3067;49.470;10.394;2023-09-19T11:20:19;20.40;45.90
6078;DHT22;3067;49.470;10.394;2023-09-19T11:23:20;20.50;46.00
6078;DHT22;3067;49.470;10.394;2023-09-19T11:25:50;20.60;45.70
6078;DHT22;3067;49.470;10.394;2023-09-19T11:28:34;20.70;44.80
6078;DHT22;3067;49.470;10.394;2023-09-19T11:34:42;20.90;44.30
6078;DHT22;3067;49.470;10.394;2023-09-19T11:40:37;21.10;43.50
6078;DHT22;3067;49.470;10.394;2023-09-19T11:43:32;21.10;44.30
6078;DHT22;3067;49.470;10.394;2023-09-19T11:46:05;21.10;44.00
6078;DHT22;3067;49.470;10.394;2023-09-19T11:48:32;21.10;44.30
6078;DHT22;3067;49.470;10.394;2023-09-19T11:51:16;21.10;44.00
6078;DHT22;3067;49.470;10.394;2023-09-19T11:53:48;21.00;43.30
6078;DHT22;3067;49.470;10.394;2023-09-19T11:56:17;21.00;43.90
6078;DHT22;3067;49.470;10.394;2023-09-19T11:58:45;21.00;44.00
6078;DHT22;3067;49.470;10.394;2023-09-19T12:01:16;21.10;44.30
6078;DHT22;3067;49.470;10.394;2023-09-19T12:03:54;21.10;44.60
6078;DHT22;3067;49.470;10.394;2023-09-19T12:06:24;21.10;43.40
6078;DHT22;3067;49.470;10.394;2023-09-19T12:08:53;21.10;44.10
6078;DHT22;3067;49.470;10.394;2023-09-19T12:11:22;21.10;45.00
6078;DHT22;3067;49.470;10.394;2023-09-19T12:13:50;21.30;45.20
6078;DHT22;3067;49.470;10.394;2023-09-19T12:16:19;21.40;43.60
6078;DHT22;3067;49.470;10.394;2023-09-19T12:18:49;21.30;43.40
6078;DHT22;3067;49.470;10.394;2023-09-19T12:21:28;21.30;43.90
6078;DHT22;3067;49.470;10.394;2023-09-19T12:24:05;21.40;43.10
6078;DHT22;3067;49.470;10.394;2023-09-19T12:26:42;21.40;43.20
6078;DHT22;3067;49.470;10.394;2023-09-19T12:29:13;21.30;43.90
6078;DHT22;3067;49.470;10.394;2023-09-19T12:31:50;21.10;44.60
6078;DHT22;3067;49.470;10.394;2023-09-19T12:34:23;21.20;43.80
6078;DHT22;3067;49.470;10.394;2023-09-19T12:37:05;21.20;44.30
6078;DHT22;3067;49.470;10.394;2023-09-19T12:39:38;21.10;44.70
6078;DHT22;3067;49.470;10.394;2023-09-19T12:42:08;21.10;44.00
6078;DHT22;3067;49.470;10.394;2023-09-19T12:44:36;20.90;44.10
6078;DHT22;3067;49.470;10.394;2023-09-19T12:47:11;20.70;44.40
6078;DHT22;3067;49.470;10.394;2023-09-19T12:50:06;20.60;44.70
6078;DHT22;3067;49.470;10.394;2023-09-19T12:52:41;20.50;44.80
6078;DHT22;3067;49.470;10.394;2023-09-19T12:55:16;20.50;45.00
6078;DHT22;3067;49.470;10.394;2023-09-19T12:57:56;20.70;45.50
6078;DHT22;3067;49.470;10.394;2023-09-19T13:00:32;21.10;43.90
6078;DHT22;3067;49.470;10.394;2023-09-19T13:03:25;21.40;44.00
6078;DHT22;3067;49.470;10.394;2023-09-19T13:05:55;21.60;43.70
6078;DHT22;3067;49.470;10.394;2023-09-19T13:08:28;21.70;42.10
6078;DHT22;3067;49.470;10.394;2023-09-19T13:11:04;22.10;43.20
6078;DHT22;3067;49.470;10.394;2023-09-19T13:13:32;22.10;40.90
6078;DHT22;3067;49.470;10.394;2023-09-19T13:16:02;21.90;41.10
6078;DHT22;3067;49.470;10.394;2023-09-19T13:18:31;21.80;41.20
6078;DHT22;3067;49.470;10.394;2023-09-19T13:21:08;22.00;41.30
6078;DHT22;3067;49.470;10.394;2023-09-19T13:23:39;22.40;40.50
6078;DHT22;3067;49.470;10.394;2023-09-19T13:26:07;22.70;40.50
6078;DHT22;3067;49.470;10.394;2023-09-19T13:28:34;22.90;39.70
6078;DHT22;3067;49.470;10.394;2023-09-19T13:31:01;23.30;38.60
6078;DHT22;3067;49.470;10.394;2023-09-19T13:33:29;23.40;38.40
6078;DHT22;3067;49.470;10.394;2023-09-19T13:35:56;23.30;38.50
6078;DHT22;3067;49.470;10.394;2023-09-19T13:38:23;23.30;38.20
6078;DHT22;3067;49.470;10.394;2023-09-19T13:40:52;23.50;37.90
6078;DHT22;3067;49.470;10.394;2023-09-19T13:43:19;23.60;37.90
6078;DHT22;3067;49.470;10.394;2023-09-19T13:45:47;23.90;37.50
6078;DHT22;3067;49.470;10.394;2023-09-19T13:48:15;24.00;37.10
6078;DHT22;3067;49.470;10.394;2023-09-19T13:50:48;24.20;37.20
6078;DHT22;3067;49.470;10.394;2023-09-19T13:53:15;24.50;37.00
6078;DHT22;3067;49.470;10.394;2023-09-19T13:55:43;24.70;36.10
6078;DHT22;3067;49.470;10.394;2023-09-19T13:58:12;24.80;36.60
6078;DHT22;3067;49.470;10.394;2023-09-19T14:00:39;24.80;35.30
6078;DHT22;3067;49.470;10.394;2023-09-19T14:03:06;24.70;35.90
6078;DHT22;3067;49.470;10.394;2023-09-19T14:05:33;24.80;35.80
6078;DHT22;3067;49.470;10.394;2023-09-19T14:08:00;25.00;36.50
6078;DHT22;3067;49.470;10.394;2023-09-19T14:10:29;25.30;35.90
6078;DHT22;3067;49.470;10.394;2023-09-19T14:12:57;25.50;34.50
6078;DHT22;3067;49.470;10.394;2023-09-19T14:15:26;25.50;34.50
6078;DHT22;3067;49.470;10.394;2023-09-19T14:17:56;25.40;34.60
6078;DHT22;3067;49.470;10.394;2023-09-19T14:20:24;25.50;35.00
6078;DHT22;3067;49.470;10.394;2023-09-19T14:22:53;25.70;34.40
6078;DHT22;3067;49.470;10.394;2023-09-19T14:25:20;26.00;33.90
6078;DHT22;3067;49.470;10.394;2023-09-19T14:27:48;26.00;33.60
6078;DHT22;3067;49.470;10.394;2023-09-19T14:30:15;26.00;33.20
6078;DHT22;3067;49.470;10.394;2023-09-19T14:32:43;25.60;33.60
6078;DHT22;3067;49.470;10.394;2023-09-19T14:35:10;25.10;34.70
6078;DHT22;3067;49.470;10.394;2023-09-19T14:37:40;24.60;35.70
6078;DHT22;3067;49.470;10.394;2023-09-19T14:40:08;24.60;35.80
6078;DHT22;3067;49.470;10.394;2023-09-19T14:42:39;25.00;35.70
6078;DHT22;3067;49.470;10.394;2023-09-19T14:45:07;25.20;34.40
6078;DHT22;3067;49.470;10.394;2023-09-19T14:47:34;24.70;34.40
6078;DHT22;3067;49.470;10.394;2023-09-19T14:50:05;24.50;35.80
6078;DHT22;3067;49.470;10.394;2023-09-19T14:52:33;24.40;36.30
6078;DHT22;3067;49.470;10.394;2023-09-19T14:55:01;24.80;36.00
6078;DHT22;3067;49.470;10.394;2023-09-19T14:57:30;25.10;34.70
6078;DHT22;3067;49.470;10.394;2023-09-19T14:59:57;25.40;34.30
6078;DHT22;3067;49.470;10.394;2023-09-19T15:02:25;25.40;34.80
6078;DHT22;3067;49.470;10.394;2023-09-19T15:04:52;25.40;34.40
6078;DHT22;3067;49.470;10.394;2023-09-19T15:07:21;25.60;34.20
6078;DHT22;3067;49.470;10.394;2023-09-19T15:09:48;25.70;33.90
6078;DHT22;3067;49.470;10.394;2023-09-19T15:12:15;25.50;34.40
6078;DHT22;3067;49.470;10.394;2023-09-19T15:14:42;25.20;34.30
6078;DHT22;3067;49.470;10.394;2023-09-19T15:17:09;25.00;34.60
6078;DHT22;3067;49.470;10.394;2023-09-19T15:19:36;24.60;34.70
6078;DHT22;3067;49.470;10.394;2023-09-19T15:22:04;24.10;35.70
6078;DHT22;3067;49.470;10.394;2023-09-19T15:24:34;23.80;36.40
6078;DHT22;3067;49.470;10.394;2023-09-19T15:27:01;23.50;37.20
6078;DHT22;3067;49.470;10.394;2023-09-19T15:29:28;23.30;37.50
6078;DHT22;3067;49.470;10.394;2023-09-19T15:31:55;23.40;37.50
6078;DHT22;3067;49.470;10.394;2023-09-19T15:34:27;23.30;37.50
6078;DHT22;3067;49.470;10.394;2023-09-19T15:36:54;23.20;37.50
6078;DHT22;3067;49.470;10.394;2023-09-19T15:39:21;23.10;38.40
6078;DHT22;3067;49.470;10.394;2023-09-19T15:41:50;23.30;38.70
6078;DHT22;3067;49.470;10.394;2023-09-19T15:44:18;23.30;37.60
6078;DHT22;3067;49.470;10.394;2023-09-19T15:46:46;23.20;38.00
6078;DHT22;3067;49.470;10.394;2023-09-19T15:49:14;23.10;38.30
6078;DHT22;3067;49.470;10.394;2023-09-19T15:51:41;22.90;38.80
6078;DHT22;3067;49.470;10.394;2023-09-19T15:54:11;22.70;39.10
6078;DHT22;3067;49.470;10.394;2023-09-19T15:56:39;22.70;38.90
6078;DHT22;3067;49.470;10.394;2023-09-19T15:59:09;22.80;39.10
6078;DHT22;3067;49.470;10.394;2023-09-19T16:01:38;22.70;39.00
6078;DHT22;3067;49.470;10.394;2023-09-19T16:04:06;22.60;39.10
6078;DHT22;3067;49.470;10.394;2023-09-19T16:06:35;22.50;39.40
6078;DHT22;3067;49.470;10.394;2023-09-19T16:09:04;22.50;39.30
6078;DHT22;3067;49.470;10.394;2023-09-19T16:11:33;22.30;39.60
6078;DHT22;3067;49.470;10.394;2023-09-19T16:14:01;22.00;40.00
6078;DHT22;3067;49.470;10.394;2023-09-19T16:16:30;21.80;40.60